createdAt,value
2018-09-02T00:02:09.528Z,101943.29
2018-09-02T00:04:39.045Z,101933.58
2018-09-02T00:07:07.827Z,101939.50
2018-09-02T00:09:36.766Z,101946.90
2018-09-02T00:12:06.091Z,101944.89
2018-09-02T00:14:35.218Z,101949.94
2018-09-02T00:17:04.585Z,101947.58
2018-09-02T00:19:33.823Z,101953.28
2018-09-02T00:22:03.639Z,101955.29
2018-09-02T00:24:32.439Z,101955.62
2018-09-02T00:27:01.208Z,101954.10
2018-09-02T00:29:30.896Z,101964.14
2018-09-02T00:31:59.670Z,101964.97
2018-09-02T00:34:29.075Z,101967.16
2018-09-02T00:36:57.816Z,101973.53
2018-09-02T00:39:27.163Z,101971.41
2018-09-02T00:41:55.945Z,101974.10
2018-09-02T00:44:24.757Z,101974.12
2018-09-02T00:46:53.756Z,101975.33
2018-09-02T00:49:23.293Z,101979.20
2018-09-02T00:51:52.426Z,101978.04
2018-09-02T00:54:21.827Z,101974.41
2018-09-02T00:56:51.298Z,101977.43
2018-09-02T00:59:20.052Z,101985.83
2018-09-02T01:01:48.879Z,101982.34
2018-09-02T01:04:17.643Z,101986.21
2018-09-02T01:06:47.720Z,101984.88
2018-09-02T01:09:16.569Z,101984.41
2018-09-02T01:11:45.924Z,101983.23
2018-09-02T01:14:14.937Z,101978.87
2018-09-02T01:16:44.447Z,101976.54
2018-09-02T01:19:13.512Z,101982.24
2018-09-02T01:21:44.027Z,101979.22
2018-09-02T01:24:13.004Z,101979.09
2018-09-02T01:26:41.773Z,101985.47
2018-09-02T01:29:11.624Z,101988.98
2018-09-02T01:31:40.866Z,101988.66
2018-09-02T01:34:10.158Z,101978.92
2018-09-02T01:36:38.915Z,101976.75
2018-09-02T01:39:08.766Z,101982.78
2018-09-02T01:41:37.528Z,101981.45
2018-09-02T01:44:06.780Z,101986.84
2018-09-02T01:46:36.067Z,101991.20
2018-09-02T01:49:05.821Z,101992.20
2018-09-02T01:51:36.351Z,101991.20
2018-09-02T01:54:06.304Z,102000.09
2018-09-02T01:56:36.299Z,102011.18
2018-09-02T01:59:05.639Z,102004.30
2018-09-02T02:01:35.231Z,102007.66
2018-09-02T02:04:04.672Z,102013.02
2018-09-02T02:06:35.127Z,102010.84
2018-09-02T02:09:04.704Z,102015.87
2018-09-02T02:11:33.649Z,102017.21
2018-09-02T02:14:02.545Z,102021.91
2018-09-02T02:16:31.308Z,102011.84
2018-09-02T02:19:00.177Z,102018.55
2018-09-02T02:21:29.697Z,102019.72
2018-09-02T02:23:58.576Z,102021.56
2018-09-02T02:26:27.397Z,102023.54
2018-09-02T02:28:56.243Z,102025.05
2018-09-02T02:31:26.209Z,102029.41
2018-09-02T02:33:55.607Z,102029.91
2018-09-02T02:36:24.406Z,102026.92
2018-09-02T02:38:54.379Z,102033.95
2018-09-02T02:41:23.568Z,102036.13
2018-09-02T02:43:52.351Z,102040.14
2018-09-02T02:46:21.210Z,102033.30
2018-09-02T02:48:50.632Z,102035.14
2018-09-02T02:51:19.971Z,102034.13
2018-09-02T02:53:48.728Z,102044.02
2018-09-02T02:56:17.965Z,102040.99
2018-09-02T02:58:47.344Z,102044.17
2018-09-02T03:01:16.073Z,102047.86
2018-09-02T03:03:45.159Z,102049.52
2018-09-02T03:06:14.864Z,102050.53
2018-09-02T03:08:43.748Z,102052.37
2018-09-02T03:11:12.637Z,102046.02
2018-09-02T03:13:41.532Z,102047.86
2018-09-02T03:16:10.781Z,102050.52
2018-09-02T03:18:40.114Z,102050.34
2018-09-02T03:21:09.434Z,102052.70
2018-09-02T03:23:38.299Z,102048.84
2018-09-02T03:26:07.970Z,102050.19
2018-09-02T03:28:37.307Z,102052.19
2018-09-02T03:31:07.341Z,102046.16
2018-09-02T03:33:37.562Z,102053.84
2018-09-02T03:36:07.363Z,102054.69
2018-09-02T03:38:37.151Z,102053.34
2018-09-02T03:41:07.276Z,102047.16
2018-09-02T03:43:36.579Z,102051.53
2018-09-02T03:46:05.978Z,102049.01
2018-09-02T03:48:36.415Z,102049.51
2018-09-02T03:51:06.413Z,102049.33
2018-09-02T03:53:35.703Z,102049.49
2018-09-02T03:56:05.277Z,102043.30
2018-09-02T03:58:35.317Z,102038.94
2018-09-02T04:01:04.596Z,102048.16
2018-09-02T04:03:33.980Z,102051.83
2018-09-02T04:06:02.813Z,102049.30
2018-09-02T04:08:32.636Z,102048.65
2018-09-02T04:11:01.439Z,102049.63
2018-09-02T04:13:30.243Z,102050.83
2018-09-02T04:15:59.049Z,102052.19
2018-09-02T04:18:27.807Z,102049.66
2018-09-02T04:20:57.082Z,102052.02
2018-09-02T04:23:25.853Z,102052.69
2018-09-02T04:25:54.663Z,102053.38
2018-09-02T04:28:23.481Z,102058.72
2018-09-02T04:30:53.183Z,102062.94
2018-09-02T04:33:22.470Z,102068.79
2018-09-02T04:35:51.297Z,102069.30
2018-09-02T04:38:21.021Z,102069.31
2018-09-02T04:40:50.685Z,102061.45
2018-09-02T04:43:19.433Z,102068.97
2018-09-02T04:45:48.167Z,102072.17
2018-09-02T04:48:17.777Z,102068.83
2018-09-02T04:50:47.171Z,102071.02
2018-09-02T04:53:16.579Z,102077.03
2018-09-02T04:55:46.067Z,102076.03
2018-09-02T04:58:15.440Z,102079.05
2018-09-02T05:00:44.323Z,102070.48
2018-09-02T05:03:13.281Z,102075.18
2018-09-02T05:05:42.188Z,102072.66
2018-09-02T05:08:11.572Z,102073.64
2018-09-02T05:10:40.322Z,102070.63
2018-09-02T05:13:09.166Z,102072.44
2018-09-02T05:15:38.018Z,102071.93
2018-09-02T05:18:07.185Z,102057.80
2018-09-02T05:20:37.267Z,102058.43
2018-09-02T05:23:06.519Z,102057.23
2018-09-02T05:25:35.914Z,102063.56
2018-09-02T05:28:05.769Z,102057.63
2018-09-02T05:30:35.837Z,102067.19
2018-09-02T05:33:05.707Z,102062.59
2018-09-02T05:35:34.775Z,102071.27
2018-09-02T05:38:04.481Z,102066.52
2018-09-02T05:40:34.491Z,102073.19
2018-09-02T05:43:04.423Z,102070.74
2018-09-02T05:45:34.893Z,102074.50
2018-09-02T05:48:04.864Z,102073.41
2018-09-02T05:50:34.876Z,102075.99
2018-09-02T05:53:03.893Z,102083.95
2018-09-02T05:55:34.226Z,102076.63
2018-09-02T05:58:03.932Z,102083.15
2018-09-02T06:00:32.771Z,102086.73
2018-09-02T06:03:01.998Z,102083.14
2018-09-02T06:05:30.911Z,102084.53
2018-09-02T06:08:00.957Z,102086.33
2018-09-02T06:10:29.817Z,102077.11
2018-09-02T06:12:58.691Z,102085.45
2018-09-02T06:15:27.503Z,102086.03
2018-09-02T06:17:56.340Z,102086.60
2018-09-02T06:20:25.597Z,102094.10
2018-09-02T06:22:54.478Z,102097.84
2018-09-02T06:25:23.291Z,102100.27
2018-09-02T06:27:52.113Z,102097.27
2018-09-02T06:30:21.464Z,102106.39
2018-09-02T06:32:50.351Z,102103.33
2018-09-02T06:35:20.156Z,102107.27
2018-09-02T06:37:48.946Z,102105.97
2018-09-02T06:40:18.352Z,102108.94
2018-09-02T06:42:47.225Z,102111.72
2018-09-02T06:45:16.010Z,102123.11
2018-09-02T06:47:45.855Z,102125.66
2018-09-02T06:50:15.308Z,102134.67
2018-09-02T06:52:44.272Z,102124.05
2018-09-02T06:55:13.716Z,102125.84
2018-09-02T06:57:57.799Z,102131.48
2018-09-02T07:00:26.603Z,102130.41
2018-09-02T07:02:55.631Z,102138.87
2018-09-02T07:05:24.462Z,102143.95
2018-09-02T07:07:53.726Z,102146.55
2018-09-02T07:10:22.528Z,102145.77
2018-09-02T07:12:52.861Z,102150.97
2018-09-02T07:15:21.618Z,102154.06
2018-09-02T07:17:50.514Z,102150.79
2018-09-02T07:20:19.433Z,102143.33
2018-09-02T07:22:48.316Z,102142.66
2018-09-02T07:25:17.256Z,102139.56
2018-09-02T07:27:46.325Z,102137.81
2018-09-02T07:30:16.253Z,102136.26
2018-09-02T07:32:45.428Z,102142.39
2018-09-02T07:35:15.375Z,102138.45
2018-09-02T07:37:44.387Z,102147.64
2018-09-02T07:40:13.999Z,102147.56
2018-09-02T07:42:43.152Z,102140.39
2018-09-02T07:45:13.028Z,102139.17
2018-09-02T07:47:43.413Z,102141.16
2018-09-02T07:50:13.083Z,102146.20
2018-09-02T07:52:41.843Z,102142.95
2018-09-02T07:55:11.100Z,102154.31
2018-09-02T07:57:40.848Z,102150.27
2018-09-02T08:00:10.842Z,102152.45
2018-09-02T08:02:40.056Z,102149.95
2018-09-02T08:05:09.107Z,102154.31
2018-09-02T08:07:38.701Z,102155.14
2018-09-02T08:10:09.023Z,102151.81
2018-09-02T08:12:37.979Z,102150.42
2018-09-02T08:15:07.447Z,102147.16
2018-09-02T08:17:36.678Z,102153.89
2018-09-02T08:20:06.779Z,102160.84
2018-09-02T08:22:37.138Z,102147.16
2018-09-02T08:25:06.553Z,102150.02
2018-09-02T08:27:35.827Z,102156.86
2018-09-02T08:30:05.509Z,102148.98
2018-09-02T08:32:34.780Z,102145.62
2018-09-02T08:35:04.802Z,102150.69
2018-09-02T08:37:33.826Z,102146.61
2018-09-02T08:40:03.116Z,102143.96
2018-09-02T08:42:31.911Z,102147.63
2018-09-02T08:45:00.995Z,102148.12
2018-09-02T08:47:29.776Z,102147.90
2018-09-02T08:49:59.119Z,102151.94
2018-09-02T08:52:27.883Z,102148.78
2018-09-02T08:54:57.280Z,102152.92
2018-09-02T08:57:26.632Z,102154.64
2018-09-02T08:59:55.487Z,102149.61
2018-09-02T09:02:24.316Z,102143.16
2018-09-02T09:04:53.124Z,102151.84
2018-09-02T09:07:22.601Z,102154.52
2018-09-02T09:09:51.452Z,102156.48
2018-09-02T09:12:20.231Z,102160.11
2018-09-02T09:14:49.008Z,102161.93
2018-09-02T09:17:17.845Z,102156.84
2018-09-02T09:19:46.881Z,102158.60
2018-09-02T09:22:15.861Z,102155.63
2018-09-02T09:24:45.408Z,102155.55
2018-09-02T09:27:14.536Z,102148.94
2018-09-02T09:29:43.796Z,102148.91
2018-09-02T09:32:12.935Z,102150.78
2018-09-02T09:34:42.457Z,102152.30
2018-09-02T09:37:11.352Z,102149.42
2018-09-02T09:39:40.934Z,102155.52
2018-09-02T09:42:09.717Z,102152.94
2018-09-02T09:44:38.478Z,102148.39
2018-09-02T09:47:07.595Z,102150.38
2018-09-02T09:49:37.521Z,102149.73
2018-09-02T09:52:07.088Z,102143.98
2018-09-02T09:54:37.089Z,102140.14
2018-09-02T09:57:06.630Z,102143.13
2018-09-02T09:59:35.771Z,102144.09
2018-09-02T10:02:04.838Z,102138.45
2018-09-02T10:04:33.784Z,102138.77
2018-09-02T10:07:03.182Z,102137.41
2018-09-02T10:09:31.999Z,102143.86
2018-09-02T10:12:00.798Z,102144.28
2018-09-02T10:14:29.646Z,102139.53
2018-09-02T10:16:58.637Z,102134.67
2018-09-02T10:19:27.521Z,102130.58
2018-09-02T10:21:56.389Z,102131.78
2018-09-02T10:24:25.144Z,102127.92
2018-09-02T10:26:53.936Z,102124.12
2018-09-02T10:29:22.739Z,102121.16
2018-09-02T10:31:52.394Z,102117.45
2018-09-02T10:34:21.948Z,102109.55
2018-09-02T10:36:50.806Z,102117.67
2018-09-02T10:39:20.195Z,102122.01
2018-09-02T10:41:49.054Z,102117.44
2018-09-02T10:44:17.816Z,102115.39
2018-09-02T10:46:46.796Z,102114.44
2018-09-02T10:49:16.443Z,102105.23
2018-09-02T10:51:46.767Z,102110.52
2018-09-02T10:54:16.853Z,102118.30
2018-09-02T10:56:46.451Z,102108.37
2018-09-02T10:59:15.843Z,102111.23
2018-09-02T11:01:44.906Z,102113.73
2018-09-02T11:04:14.011Z,102109.16
2018-09-02T11:06:43.510Z,102111.70
2018-09-02T11:09:14.572Z,102099.31
2018-09-02T11:11:43.426Z,102104.11
2018-09-02T11:14:12.241Z,102100.87
2018-09-02T11:16:41.017Z,102101.03
2018-09-02T11:19:09.907Z,102093.16
2018-09-02T11:21:38.747Z,102092.53
2018-09-02T11:24:07.614Z,102093.67
2018-09-02T11:26:37.039Z,102090.00
2018-09-02T11:29:06.391Z,102092.50
2018-09-02T11:31:36.101Z,102095.34
2018-09-02T11:34:06.050Z,102092.54
2018-09-02T11:36:35.113Z,102089.85
2018-09-02T11:39:05.774Z,102091.14
2018-09-02T11:41:34.740Z,102090.51
2018-09-02T11:44:04.139Z,102095.23
2018-09-02T11:46:33.032Z,102092.64
2018-09-02T11:49:02.851Z,102090.08
2018-09-02T11:51:32.186Z,102092.41
2018-09-02T11:54:01.485Z,102091.05
2018-09-02T11:56:30.248Z,102096.22
2018-09-02T11:59:00.094Z,102092.62
2018-09-02T12:01:28.988Z,102085.55
2018-09-02T12:03:57.883Z,102091.56
2018-09-02T12:06:27.807Z,102083.61
2018-09-02T12:08:56.692Z,102091.49
2018-09-02T12:11:25.495Z,102089.48
2018-09-02T12:13:54.337Z,102089.78
2018-09-02T12:16:23.119Z,102088.03
2018-09-02T12:18:52.079Z,102086.22
2018-09-02T12:21:20.924Z,102090.12
2018-09-02T12:23:49.698Z,102082.97
2018-09-02T12:26:18.464Z,102087.79
2018-09-02T12:28:47.421Z,102081.90
2018-09-02T12:31:18.091Z,102086.70
2018-09-02T12:33:50.999Z,102084.00
2018-09-02T12:36:19.983Z,102083.38
2018-09-02T12:38:49.320Z,102082.88
2018-09-02T12:41:18.742Z,102079.90
2018-09-02T12:43:47.503Z,102080.80
2018-09-02T12:46:17.536Z,102084.55
2018-09-02T12:48:46.989Z,102083.28
2018-09-02T12:51:16.997Z,102087.21
2018-09-02T12:53:45.884Z,102086.67
2018-09-02T12:56:15.801Z,102096.16
2018-09-02T12:58:45.109Z,102087.64
2018-09-02T13:01:14.219Z,102087.07
2018-09-02T13:03:57.417Z,102091.83
2018-09-02T13:06:26.865Z,102083.14
2018-09-02T13:08:55.702Z,102079.51
2018-09-02T13:11:24.491Z,102081.63
2018-09-02T13:13:54.260Z,102081.80
2018-09-02T13:16:23.055Z,102079.66
2018-09-02T13:18:52.846Z,102077.63
2018-09-02T13:21:21.709Z,102075.39
2018-09-02T13:23:50.922Z,102078.33
2018-09-02T13:26:19.740Z,102071.98
2018-09-02T13:28:48.521Z,102074.02
2018-09-02T13:31:17.967Z,102067.83
2018-09-02T13:33:47.516Z,102062.48
2018-09-02T13:36:16.533Z,102062.52
2018-09-02T13:38:46.338Z,102062.15
2018-09-02T13:41:15.397Z,102063.81
2018-09-02T13:43:44.873Z,102064.34
2018-09-02T13:46:15.076Z,102068.61
2018-09-02T13:48:44.596Z,102059.66
2018-09-02T13:51:14.433Z,102057.84
2018-09-02T13:53:43.351Z,102049.17
2018-09-02T13:56:12.713Z,102047.19
2018-09-02T13:58:42.486Z,102050.70
2018-09-02T14:01:11.512Z,102054.42
2018-09-02T14:03:41.537Z,102052.55
2018-09-02T14:06:11.465Z,102049.23
2018-09-02T14:08:41.126Z,102047.67
2018-09-02T14:11:10.742Z,102048.10
2018-09-02T14:13:39.581Z,102047.81
2018-09-02T14:16:08.465Z,102048.72
2018-09-02T14:18:37.347Z,102044.22
2018-09-02T14:21:06.964Z,102047.11
2018-09-02T14:23:36.358Z,102035.46
2018-09-02T14:26:06.342Z,102036.83
2018-09-02T14:28:35.549Z,102034.38
2018-09-02T14:31:05.714Z,102036.22
2018-09-02T14:33:35.657Z,102044.66
2018-09-02T14:36:04.956Z,102036.66
2018-09-02T14:38:34.667Z,102038.12
2018-09-02T14:41:03.907Z,102033.58
2018-09-02T14:43:32.924Z,102034.56
2018-09-02T14:46:02.351Z,102042.24
2018-09-02T14:48:31.807Z,102034.85
2018-09-02T14:51:01.236Z,102032.41
2018-09-02T14:53:30.272Z,102035.68
2018-09-02T14:55:59.780Z,102043.50
2018-09-02T14:58:29.305Z,102041.66
2018-09-02T15:00:58.294Z,102045.28
2018-09-02T15:03:27.175Z,102042.00
2018-09-02T15:05:56.049Z,102034.95
2018-09-02T15:08:25.410Z,102035.69
2018-09-02T15:10:54.837Z,102033.00
2018-09-02T15:13:23.881Z,102031.34
2018-09-02T15:15:53.332Z,102036.23
2018-09-02T15:18:22.401Z,102035.40
2018-09-02T15:20:51.300Z,102036.28
2018-09-02T15:23:20.217Z,102025.38
2018-09-02T15:25:49.151Z,102029.14
2018-09-02T15:28:18.144Z,102029.68
2018-09-02T15:30:47.755Z,102026.91
2018-09-02T15:33:17.876Z,102026.41
2018-09-02T15:35:47.264Z,102031.72
2018-09-02T15:38:17.049Z,102029.73
2018-09-02T15:40:46.398Z,102027.77
2018-09-02T15:43:15.924Z,102023.24
2018-09-02T15:45:45.038Z,102032.09
2018-09-02T15:48:14.767Z,102026.38
2018-09-02T15:50:44.333Z,102030.09
2018-09-02T15:53:13.173Z,102036.68
2018-09-02T15:55:42.633Z,102028.43
2018-09-02T15:58:13.139Z,102029.40
2018-09-02T16:00:42.171Z,102024.71
2018-09-02T16:03:11.545Z,102029.55
2018-09-02T16:05:40.439Z,102019.97
2018-09-02T16:08:10.291Z,102025.70
2018-09-02T16:10:39.737Z,102022.25
2018-09-02T16:13:08.936Z,102019.11
2018-09-02T16:15:37.807Z,102015.03
2018-09-02T16:18:07.590Z,102020.28
2018-09-02T16:20:36.785Z,102019.16
2018-09-02T16:23:07.195Z,102015.30
2018-09-02T16:25:36.291Z,102019.40
2018-09-02T16:28:05.532Z,102019.64
2018-09-02T16:30:35.135Z,102016.91
2018-09-02T16:33:04.833Z,102015.22
2018-09-02T16:35:34.855Z,102015.59
2018-09-02T16:38:04.519Z,102013.37
2018-09-02T16:40:33.997Z,102007.39
2018-09-02T16:43:03.031Z,102008.58
2018-09-02T16:45:31.894Z,102008.45
2018-09-02T16:48:01.537Z,102005.80
2018-09-02T16:50:30.863Z,102004.58
2018-09-02T16:52:59.721Z,102007.41
2018-09-02T16:55:29.154Z,102010.66
2018-09-02T16:57:58.961Z,102005.33
2018-09-02T17:00:27.883Z,102005.18
2018-09-02T17:02:56.673Z,102004.64
2018-09-02T17:05:25.730Z,102006.28
2018-09-02T17:07:55.380Z,102000.41
2018-09-02T17:10:24.760Z,102004.41
2018-09-02T17:12:53.649Z,102006.38
2018-09-02T17:15:22.466Z,102001.08
2018-09-02T17:17:51.392Z,102002.17
2018-09-02T17:20:24.944Z,101996.34
2018-09-02T17:22:58.161Z,101997.20
2018-09-02T17:25:27.088Z,101996.21
2018-09-02T17:27:56.368Z,101999.88
2018-09-02T17:30:26.109Z,102002.56
2018-09-02T17:32:54.986Z,102009.58
2018-09-02T17:35:24.662Z,102003.43
2018-09-02T17:37:53.944Z,102000.78
2018-09-02T17:40:22.723Z,102004.25
2018-09-02T17:42:51.496Z,102003.80
2018-09-02T17:45:20.695Z,101999.03
2018-09-02T17:47:50.209Z,102002.72
2018-09-02T17:50:19.573Z,101998.27
2018-09-02T17:52:48.499Z,101998.16
2018-09-02T17:55:18.186Z,102002.43
2018-09-02T17:57:47.684Z,102000.72
2018-09-02T18:00:20.160Z,102002.86
2018-09-02T18:02:49.029Z,102006.34
2018-09-02T18:05:18.012Z,102012.13
2018-09-02T18:07:47.827Z,102012.28
2018-09-02T18:10:17.577Z,102013.03
2018-09-02T18:12:47.317Z,102004.04
2018-09-02T18:15:16.285Z,102009.96
2018-09-02T18:17:45.341Z,102005.05
2018-09-02T18:20:14.307Z,102019.14
2018-09-02T18:22:43.835Z,102015.18
2018-09-02T18:25:13.477Z,102014.11
2018-09-02T18:27:45.019Z,102017.97
2018-09-02T18:30:14.780Z,102015.03
2018-09-02T18:32:43.584Z,102020.02
2018-09-02T18:35:13.055Z,102021.97
2018-09-02T18:37:42.727Z,102023.91
2018-09-02T18:40:11.588Z,102022.89
2018-09-02T18:42:40.339Z,102018.34
2018-09-02T18:45:09.522Z,102025.48
2018-09-02T18:48:10.377Z,102017.80
2018-09-02T18:50:40.068Z,102020.41
2018-09-02T18:53:08.853Z,102026.69
2018-09-02T18:55:38.247Z,102022.31
2018-09-02T18:58:07.666Z,102023.06
2018-09-02T19:00:37.113Z,102022.77
2018-09-02T19:03:07.264Z,102017.66
2018-09-02T19:05:36.428Z,102015.70
2018-09-02T19:08:06.965Z,102018.05
2018-09-02T19:10:36.119Z,102021.91
2018-09-02T19:13:05.479Z,102023.88
2018-09-02T19:15:34.995Z,102021.27
2018-09-02T19:18:04.069Z,102020.84
2018-09-02T19:20:33.125Z,102015.34
2018-09-02T19:23:01.914Z,102015.95
2018-09-02T19:25:30.805Z,102012.19
2018-09-02T19:27:59.597Z,102014.50
2018-09-02T19:30:28.984Z,102015.22
2018-09-02T19:32:58.818Z,102009.90
2018-09-02T19:35:28.414Z,102005.64
2018-09-02T19:37:57.685Z,102014.45
2018-09-02T19:40:26.527Z,102003.20
2018-09-02T19:42:55.319Z,102011.11
2018-09-02T19:45:24.187Z,102007.14
2018-09-02T19:47:53.696Z,102005.55
2018-09-02T19:50:23.277Z,102000.47
2018-09-02T19:52:52.086Z,102006.87
2018-09-02T19:55:21.573Z,102006.03
2018-09-02T19:57:51.005Z,102000.30
2018-09-02T20:00:20.053Z,101996.48
2018-09-02T20:02:48.828Z,102000.94
2018-09-02T20:05:17.827Z,102000.41
2018-09-02T20:07:47.228Z,101995.08
2018-09-02T20:10:17.668Z,102003.88
2018-09-02T20:12:46.592Z,102000.42
2018-09-02T20:15:15.663Z,101995.61
2018-09-02T20:17:44.607Z,102002.14
2018-09-02T20:20:14.608Z,102005.75
2018-09-02T20:22:43.491Z,102007.88
2018-09-02T20:25:12.339Z,102004.97
2018-09-02T20:27:41.123Z,102006.06
2018-09-02T20:30:10.887Z,102001.47
2018-09-02T20:32:39.695Z,102009.31
2018-09-02T20:35:09.320Z,102009.87
2018-09-02T20:37:38.637Z,102011.05
2018-09-02T20:40:07.996Z,102012.84
2018-09-02T20:42:37.334Z,102005.65
2018-09-02T20:45:06.657Z,102008.44
2018-09-02T20:47:36.615Z,102012.64
2018-09-02T20:50:06.548Z,102005.96
2018-09-02T20:52:35.812Z,102014.24
2018-09-02T20:55:05.404Z,102011.09
2018-09-02T20:57:35.255Z,102015.66
2018-09-02T21:00:05.879Z,102016.91
2018-09-02T21:02:35.279Z,102017.28
2018-09-02T21:05:04.869Z,102018.81
2018-09-02T21:07:34.618Z,102022.54
2018-09-02T21:10:04.211Z,102018.55
2018-09-02T21:12:33.041Z,102015.75
2018-09-02T21:15:02.402Z,102013.44
2018-09-02T21:17:31.197Z,102017.86
2018-09-02T21:20:00.057Z,102021.02
2018-09-02T21:22:28.953Z,102030.83
2018-09-02T21:24:57.739Z,102026.00
2018-09-02T21:27:27.317Z,102027.40
2018-09-02T21:29:57.279Z,102029.34
2018-09-02T21:32:26.076Z,102028.23
2018-09-02T21:34:55.578Z,102030.17
2018-09-02T21:37:24.372Z,102028.68
2018-09-02T21:39:53.600Z,102031.75
2018-09-02T21:42:22.448Z,102036.48
2018-09-02T21:44:51.315Z,102032.20
2018-09-02T21:47:20.661Z,102031.73
2018-09-02T21:49:50.072Z,102025.88
2018-09-02T21:52:18.852Z,102024.90
2018-09-02T21:54:48.311Z,102030.98
2018-09-02T21:57:17.755Z,102028.00
2018-09-02T21:59:46.835Z,102028.50
2018-09-02T22:02:15.737Z,102029.89
2018-09-02T22:04:45.075Z,102030.59
2018-09-02T22:07:14.696Z,102024.91
2018-09-02T22:09:44.228Z,102025.94
2018-09-02T22:12:13.035Z,102032.05
2018-09-02T22:14:41.864Z,102029.21
2018-09-02T22:17:10.732Z,102029.40
2018-09-02T22:19:39.609Z,102025.22
2018-09-02T22:22:08.915Z,102028.42
2018-09-02T22:24:37.786Z,102028.78
2018-09-02T22:27:08.012Z,102029.48
2018-09-02T22:29:37.547Z,102033.88
2018-09-02T22:32:07.973Z,102029.38
2018-09-02T22:34:37.528Z,102031.22
2018-09-02T22:37:07.006Z,102037.30
2018-09-02T22:39:37.034Z,102034.14
2018-09-02T22:42:06.804Z,102034.39
2018-09-02T22:44:36.028Z,102034.90
2018-09-02T22:47:06.007Z,102033.55
2018-09-02T22:49:35.930Z,102035.41
2018-09-02T22:52:05.436Z,102030.71
2018-09-02T22:54:34.761Z,102030.56
2018-09-02T22:57:04.565Z,102031.65
2018-09-02T22:59:35.094Z,102034.02
2018-09-02T23:02:04.286Z,102032.70
2018-09-02T23:04:33.089Z,102033.53
2018-09-02T23:07:02.345Z,102036.08
2018-09-02T23:09:32.041Z,102032.41
2018-09-02T23:12:01.329Z,102033.45
2018-09-02T23:15:01.020Z,102038.69
2018-09-02T23:17:29.804Z,102031.81
2018-09-02T23:19:59.640Z,102032.50
2018-09-02T23:22:28.496Z,102038.20
2018-09-02T23:24:57.973Z,102039.73
2018-09-02T23:27:26.793Z,102031.19
2018-09-02T23:29:56.563Z,102033.03
2018-09-02T23:32:25.313Z,102035.64
2018-09-02T23:34:55.526Z,102028.43
2018-09-02T23:37:24.283Z,102031.69
2018-09-02T23:39:53.912Z,102031.03
2018-09-02T23:42:22.819Z,102030.88
2018-09-02T23:44:51.672Z,102028.37
2018-09-02T23:47:21.573Z,102025.53
2018-09-02T23:49:50.926Z,102022.17
2018-09-02T23:52:19.728Z,102022.23
2018-09-02T23:54:49.223Z,102023.94
2018-09-02T23:57:18.640Z,102022.77
2018-09-02T23:59:47.620Z,102012.52
